sensor_id;sensor_type;location;lat;lon;timestamp;P1;durP1;ratioP1;P2;durP2;ratioP2
568;SDS011;269;48.884;9.192;2023-04-15T00:00:27;5.97;;;5.22;;
568;SDS011;269;48.884;9.192;2023-04-15T00:02:54;8.77;;;5.25;;
568;SDS011;269;48.884;9.192;2023-04-15T00:05:23;6.00;;;4.93;;
568;SDS011;269;48.884;9.192;2023-04-15T00:07:50;5.65;;;4.90;;
568;SDS011;269;48.884;9.192;2023-04-15T00:10:18;6.13;;;5.53;;
568;SDS011;269;48.884;9.192;2023-04-15T00:12:45;7.13;;;5.35;;
568;SDS011;269;48.884;9.192;2023-04-15T00:15:12;6.13;;;4.85;;
568;SDS011;269;48.884;9.192;2023-04-15T00:17:40;6.20;;;5.63;;
568;SDS011;269;48.884;9.192;2023-04-15T00:20:07;8.02;;;4.95;;
568;SDS011;269;48.884;9.192;2023-04-15T00:22:36;6.05;;;5.18;;
568;SDS011;269;48.884;9.192;2023-04-15T00:25:04;6.65;;;5.40;;
568;SDS011;269;48.884;9.192;2023-04-15T00:27:31;6.05;;;5.13;;
568;SDS011;269;48.884;9.192;2023-04-15T00:29:58;6.38;;;4.90;;
568;SDS011;269;48.884;9.192;2023-04-15T00:32:26;7.35;;;6.40;;
568;SDS011;269;48.884;9.192;2023-04-15T00:34:53;7.00;;;5.47;;
568;SDS011;269;48.884;9.192;2023-04-15T00:37:20;7.95;;;5.63;;
568;SDS011;269;48.884;9.192;2023-04-15T00:39:49;9.13;;;6.05;;
568;SDS011;269;48.884;9.192;2023-04-15T00:42:16;5.68;;;4.93;;
568;SDS011;269;48.884;9.192;2023-04-15T00:44:46;6.80;;;5.50;;
568;SDS011;269;48.884;9.192;2023-04-15T00:47:13;6.00;;;5.40;;
568;SDS011;269;48.884;9.192;2023-04-15T00:49:41;6.97;;;5.40;;
568;SDS011;269;48.884;9.192;2023-04-15T00:52:08;5.95;;;5.32;;
568;SDS011;269;48.884;9.192;2023-04-15T00:54:35;7.20;;;5.60;;
568;SDS011;269;48.884;9.192;2023-04-15T00:57:05;6.10;;;5.50;;
568;SDS011;269;48.884;9.192;2023-04-15T00:59:33;7.25;;;5.28;;
568;SDS011;269;48.884;9.192;2023-04-15T01:02:01;9.10;;;5.70;;
568;SDS011;269;48.884;9.192;2023-04-15T01:04:28;4.95;;;4.53;;
568;SDS011;269;48.884;9.192;2023-04-15T01:06:56;6.55;;;4.90;;
568;SDS011;269;48.884;9.192;2023-04-15T01:09:23;6.65;;;5.18;;
568;SDS011;269;48.884;9.192;2023-04-15T01:11:50;5.93;;;5.30;;
568;SDS011;269;48.884;9.192;2023-04-15T01:14:19;6.38;;;5.43;;
568;SDS011;269;48.884;9.192;2023-04-15T01:16:47;8.05;;;5.60;;
568;SDS011;269;48.884;9.192;2023-04-15T01:19:14;6.97;;;5.55;;
568;SDS011;269;48.884;9.192;2023-04-15T01:21:42;7.68;;;5.70;;
568;SDS011;269;48.884;9.192;2023-04-15T01:24:09;6.38;;;5.65;;
568;SDS011;269;48.884;9.192;2023-04-15T01:26:38;6.47;;;5.57;;
568;SDS011;269;48.884;9.192;2023-04-15T01:29:05;6.00;;;5.40;;
568;SDS011;269;48.884;9.192;2023-04-15T01:31:32;8.32;;;5.60;;
568;SDS011;269;48.884;9.192;2023-04-15T01:33:59;6.30;;;5.70;;
568;SDS011;269;48.884;9.192;2023-04-15T01:36:26;8.57;;;5.90;;
568;SDS011;269;48.884;9.192;2023-04-15T01:38:54;7.95;;;5.00;;
568;SDS011;269;48.884;9.192;2023-04-15T01:41:23;7.30;;;5.47;;
568;SDS011;269;48.884;9.192;2023-04-15T01:43:52;5.82;;;5.22;;
568;SDS011;269;48.884;9.192;2023-04-15T01:46:20;8.10;;;5.57;;
568;SDS011;269;48.884;9.192;2023-04-15T01:48:48;6.28;;;5.50;;
568;SDS011;269;48.884;9.192;2023-04-15T01:51:15;6.57;;;5.40;;
568;SDS011;269;48.884;9.192;2023-04-15T01:53:42;6.88;;;5.72;;
568;SDS011;269;48.884;9.192;2023-04-15T01:56:09;7.32;;;5.85;;
568;SDS011;269;48.884;9.192;2023-04-15T01:58:36;7.38;;;5.50;;
568;SDS011;269;48.884;9.192;2023-04-15T02:01:06;9.65;;;6.43;;
568;SDS011;269;48.884;9.192;2023-04-15T02:03:34;7.60;;;6.40;;
568;SDS011;269;48.884;9.192;2023-04-15T02:06:03;8.48;;;5.93;;
568;SDS011;269;48.884;9.192;2023-04-15T02:08:30;8.18;;;5.55;;
568;SDS011;269;48.884;9.192;2023-04-15T02:10:57;7.05;;;5.70;;
568;SDS011;269;48.884;9.192;2023-04-15T02:13:25;7.88;;;6.03;;
568;SDS011;269;48.884;9.192;2023-04-15T02:15:53;6.55;;;5.78;;
568;SDS011;269;48.884;9.192;2023-04-15T02:18:22;7.40;;;5.85;;
568;SDS011;269;48.884;9.192;2023-04-15T02:20:50;9.45;;;6.57;;
568;SDS011;269;48.884;9.192;2023-04-15T02:23:17;7.18;;;6.43;;
568;SDS011;269;48.884;9.192;2023-04-15T02:25:44;9.65;;;6.30;;
568;SDS011;269;48.884;9.192;2023-04-15T02:28:11;10.18;;;6.82;;
568;SDS011;269;48.884;9.192;2023-04-15T02:30:38;7.45;;;6.75;;
568;SDS011;269;48.884;9.192;2023-04-15T02:33:06;10.25;;;6.75;;
568;SDS011;269;48.884;9.192;2023-04-15T02:35:34;9.15;;;6.95;;
568;SDS011;269;48.884;9.192;2023-04-15T02:38:03;7.68;;;6.65;;
568;SDS011;269;48.884;9.192;2023-04-15T02:40:31;9.88;;;6.68;;
568;SDS011;269;48.884;9.192;2023-04-15T02:42:58;7.45;;;6.30;;
568;SDS011;269;48.884;9.192;2023-04-15T02:45:25;7.75;;;6.05;;
568;SDS011;269;48.884;9.192;2023-04-15T02:47:53;11.85;;;7.90;;
568;SDS011;269;48.884;9.192;2023-04-15T02:50:20;7.63;;;6.78;;
568;SDS011;269;48.884;9.192;2023-04-15T02:52:49;9.40;;;6.70;;
568;SDS011;269;48.884;9.192;2023-04-15T02:55:16;7.93;;;6.43;;
568;SDS011;269;48.884;9.192;2023-04-15T02:57:43;9.02;;;6.72;;
568;SDS011;269;48.884;9.192;2023-04-15T03:00:11;9.77;;;7.68;;
568;SDS011;269;48.884;9.192;2023-04-15T03:02:39;6.68;;;6.05;;
568;SDS011;269;48.884;9.192;2023-04-15T03:05:09;6.40;;;5.88;;
568;SDS011;269;48.884;9.192;2023-04-15T03:07:38;9.23;;;6.60;;
568;SDS011;269;48.884;9.192;2023-04-15T03:10:07;9.35;;;6.85;;
568;SDS011;269;48.884;9.192;2023-04-15T03:12:34;7.30;;;6.45;;
568;SDS011;269;48.884;9.192;2023-04-15T03:15:02;9.45;;;6.80;;
568;SDS011;269;48.884;9.192;2023-04-15T03:17:29;8.73;;;7.30;;
568;SDS011;269;48.884;9.192;2023-04-15T03:19:56;8.07;;;6.40;;
568;SDS011;269;48.884;9.192;2023-04-15T03:22:23;9.10;;;6.35;;
568;SDS011;269;48.884;9.192;2023-04-15T03:24:50;8.15;;;7.05;;
568;SDS011;269;48.884;9.192;2023-04-15T03:27:19;7.80;;;6.15;;
568;SDS011;269;48.884;9.192;2023-04-15T03:29:46;8.68;;;6.50;;
568;SDS011;269;48.884;9.192;2023-04-15T03:32:13;7.93;;;7.07;;
568;SDS011;269;48.884;9.192;2023-04-15T03:34:40;9.00;;;6.15;;
568;SDS011;269;48.884;9.192;2023-04-15T03:37:08;7.25;;;6.38;;
568;SDS011;269;48.884;9.192;2023-04-15T03:39:35;6.95;;;6.25;;
568;SDS011;269;48.884;9.192;2023-04-15T03:42:02;7.25;;;6.30;;
568;SDS011;269;48.884;9.192;2023-04-15T03:44:30;9.82;;;6.47;;
568;SDS011;269;48.884;9.192;2023-04-15T03:46:57;8.93;;;6.22;;
568;SDS011;269;48.884;9.192;2023-04-15T03:49:24;8.27;;;7.40;;
568;SDS011;269;48.884;9.192;2023-04-15T03:51:51;7.93;;;6.22;;
568;SDS011;269;48.884;9.192;2023-04-15T03:54:18;10.27;;;6.90;;
568;SDS011;269;48.884;9.192;2023-04-15T03:56:45;7.95;;;7.07;;
568;SDS011;269;48.884;9.192;2023-04-15T03:59:13;10.88;;;7.45;;
568;SDS011;269;48.884;9.192;2023-04-15T04:01:41;8.38;;;6.95;;
568;SDS011;269;48.884;9.192;2023-04-15T04:04:08;7.25;;;6.22;;
568;SDS011;269;48.884;9.192;2023-04-15T04:06:35;8.30;;;7.45;;
568;SDS011;269;48.884;9.192;2023-04-15T04:09:02;10.52;;;7.55;;
568;SDS011;269;48.884;9.192;2023-04-15T04:11:29;8.85;;;6.70;;
568;SDS011;269;48.884;9.192;2023-04-15T04:13:57;9.90;;;6.82;;
568;SDS011;269;48.884;9.192;2023-04-15T04:16:24;10.77;;;6.95;;
568;SDS011;269;48.884;9.192;2023-04-15T04:18:53;11.52;;;7.05;;
568;SDS011;269;48.884;9.192;2023-04-15T04:21:20;8.10;;;7.30;;
568;SDS011;269;48.884;9.192;2023-04-15T04:23:48;10.50;;;7.35;;
568;SDS011;269;48.884;9.192;2023-04-15T04:26:16;10.38;;;8.23;;
568;SDS011;269;48.884;9.192;2023-04-15T04:28:44;9.50;;;6.47;;
568;SDS011;269;48.884;9.192;2023-04-15T04:31:12;8.45;;;6.68;;
568;SDS011;269;48.884;9.192;2023-04-15T04:33:39;7.68;;;6.88;;
568;SDS011;269;48.884;9.192;2023-04-15T04:36:08;8.68;;;7.28;;
568;SDS011;269;48.884;9.192;2023-04-15T04:38:36;10.90;;;7.80;;
568;SDS011;269;48.884;9.192;2023-04-15T04:41:04;8.73;;;6.85;;
568;SDS011;269;48.884;9.192;2023-04-15T04:43:31;8.88;;;7.40;;
568;SDS011;269;48.884;9.192;2023-04-15T04:45:59;9.30;;;7.30;;
568;SDS011;269;48.884;9.192;2023-04-15T04:48:26;9.35;;;7.28;;
568;SDS011;269;48.884;9.192;2023-04-15T04:50:54;8.48;;;7.10;;
568;SDS011;269;48.884;9.192;2023-04-15T04:53:23;8.10;;;7.35;;
568;SDS011;269;48.884;9.192;2023-04-15T04:55:51;8.05;;;7.00;;
568;SDS011;269;48.884;9.192;2023-04-15T04:58:19;8.32;;;7.25;;
568;SDS011;269;48.884;9.192;2023-04-15T05:00:46;7.72;;;6.95;;
568;SDS011;269;48.884;9.192;2023-04-15T05:03:14;9.68;;;7.65;;
568;SDS011;269;48.884;9.192;2023-04-15T05:05:42;7.75;;;6.95;;
568;SDS011;269;48.884;9.192;2023-04-15T05:08:08;7.85;;;7.05;;
568;SDS011;269;48.884;9.192;2023-04-15T05:10:37;8.02;;;6.68;;
568;SDS011;269;48.884;9.192;2023-04-15T05:13:04;9.95;;;7.20;;
568;SDS011;269;48.884;9.192;2023-04-15T05:15:31;8.38;;;7.57;;
568;SDS011;269;48.884;9.192;2023-04-15T05:17:59;9.38;;;8.48;;
568;SDS011;269;48.884;9.192;2023-04-15T05:20:26;7.45;;;6.75;;
568;SDS011;269;48.884;9.192;2023-04-15T05:22:53;11.43;;;8.30;;
568;SDS011;269;48.884;9.192;2023-04-15T05:25:20;8.25;;;7.22;;
568;SDS011;269;48.884;9.192;2023-04-15T05:27:48;10.38;;;8.18;;
568;SDS011;269;48.884;9.192;2023-04-15T05:30:15;10.10;;;7.85;;
568;SDS011;269;48.884;9.192;2023-04-15T05:32:42;11.57;;;7.60;;
568;SDS011;269;48.884;9.192;2023-04-15T05:35:10;8.77;;;7.90;;
568;SDS011;269;48.884;9.192;2023-04-15T05:37:36;11.15;;;7.70;;
568;SDS011;269;48.884;9.192;2023-04-15T05:40:04;10.30;;;8.25;;
568;SDS011;269;48.884;9.192;2023-04-15T05:42:32;11.13;;;7.97;;
568;SDS011;269;48.884;9.192;2023-04-15T05:45:01;9.05;;;7.30;;
568;SDS011;269;48.884;9.192;2023-04-15T05:47:29;10.27;;;8.43;;
568;SDS011;269;48.884;9.192;2023-04-15T05:49:57;12.07;;;8.30;;
568;SDS011;269;48.884;9.192;2023-04-15T05:52:24;12.10;;;9.32;;
568;SDS011;269;48.884;9.192;2023-04-15T05:54:51;10.55;;;8.60;;
568;SDS011;269;48.884;9.192;2023-04-15T05:57:18;11.13;;;7.38;;
568;SDS011;269;48.884;9.192;2023-04-15T05:59:45;8.18;;;7.30;;
568;SDS011;269;48.884;9.192;2023-04-15T06:02:13;9.82;;;7.30;;
568;SDS011;269;48.884;9.192;2023-04-15T06:04:41;8.07;;;7.20;;
568;SDS011;269;48.884;9.192;2023-04-15T06:07:08;9.90;;;7.93;;
568;SDS011;269;48.884;9.192;2023-04-15T06:09:35;8.70;;;7.55;;
568;SDS011;269;48.884;9.192;2023-04-15T06:12:02;10.13;;;7.78;;
568;SDS011;269;48.884;9.192;2023-04-15T06:14:30;8.10;;;6.70;;
568;SDS011;269;48.884;9.192;2023-04-15T06:16:57;7.80;;;7.00;;
568;SDS011;269;48.884;9.192;2023-04-15T06:19:26;9.95;;;6.82;;
568;SDS011;269;48.884;9.192;2023-04-15T06:21:53;8.52;;;7.45;;
568;SDS011;269;48.884;9.192;2023-04-15T06:24:20;7.68;;;6.88;;
568;SDS011;269;48.884;9.192;2023-04-15T06:26:47;7.88;;;6.35;;
568;SDS011;269;48.884;9.192;2023-04-15T06:29:14;8.88;;;7.20;;
568;SDS011;269;48.884;9.192;2023-04-15T06:31:41;7.43;;;6.22;;
568;SDS011;269;48.884;9.192;2023-04-15T06:34:09;6.90;;;6.20;;
568;SDS011;269;48.884;9.192;2023-04-15T06:36:37;7.72;;;6.47;;
568;SDS011;269;48.884;9.192;2023-04-15T06:39:04;9.27;;;6.80;;
568;SDS011;269;48.884;9.192;2023-04-15T06:41:31;7.10;;;6.40;;
568;SDS011;269;48.884;9.192;2023-04-15T06:43:58;11.50;;;6.30;;
568;SDS011;269;48.884;9.192;2023-04-15T06:46:25;6.32;;;5.72;;
568;SDS011;269;48.884;9.192;2023-04-15T06:48:52;9.10;;;6.43;;
568;SDS011;269;48.884;9.192;2023-04-15T06:51:19;7.10;;;6.15;;
568;SDS011;269;48.884;9.192;2023-04-15T06:53:49;7.50;;;6.13;;
568;SDS011;269;48.884;9.192;2023-04-15T06:56:17;6.90;;;6.20;;
568;SDS011;269;48.884;9.192;2023-04-15T06:58:43;6.75;;;6.15;;
568;SDS011;269;48.884;9.192;2023-04-15T07:01:12;7.10;;;5.25;;
568;SDS011;269;48.884;9.192;2023-04-15T07:03:40;6.68;;;5.97;;
568;SDS011;269;48.884;9.192;2023-04-15T07:06:07;6.35;;;5.60;;
568;SDS011;269;48.884;9.192;2023-04-15T07:08:34;6.22;;;5.63;;
568;SDS011;269;48.884;9.192;2023-04-15T07:11:03;6.45;;;5.35;;
568;SDS011;269;48.884;9.192;2023-04-15T07:13:30;6.55;;;5.30;;
568;SDS011;269;48.884;9.192;2023-04-15T07:15:57;6.68;;;5.78;;
568;SDS011;269;48.884;9.192;2023-04-15T07:18:25;6.90;;;4.97;;
568;SDS011;269;48.884;9.192;2023-04-15T07:20:52;5.63;;;5.13;;
568;SDS011;269;48.884;9.192;2023-04-15T07:23:19;8.07;;;6.03;;
568;SDS011;269;48.884;9.192;2023-04-15T07:25:46;6.95;;;5.60;;
568;SDS011;269;48.884;9.192;2023-04-15T07:28:14;6.28;;;5.60;;
568;SDS011;269;48.884;9.192;2023-04-15T07:30:41;5.72;;;5.10;;
568;SDS011;269;48.884;9.192;2023-04-15T07:33:08;6.40;;;5.63;;
568;SDS011;269;48.884;9.192;2023-04-15T07:35:35;7.57;;;6.88;;
568;SDS011;269;48.884;9.192;2023-04-15T07:38:02;9.23;;;6.65;;
568;SDS011;269;48.884;9.192;2023-04-15T07:40:29;6.88;;;5.93;;
568;SDS011;269;48.884;9.192;2023-04-15T07:42:56;7.13;;;6.07;;
568;SDS011;269;48.884;9.192;2023-04-15T07:45:24;7.28;;;4.70;;
568;SDS011;269;48.884;9.192;2023-04-15T07:47:52;5.00;;;4.50;;
568;SDS011;269;48.884;9.192;2023-04-15T07:50:20;6.40;;;4.55;;
568;SDS011;269;48.884;9.192;2023-04-15T07:52:47;5.13;;;4.63;;
568;SDS011;269;48.884;9.192;2023-04-15T07:55:15;6.30;;;4.87;;
568;SDS011;269;48.884;9.192;2023-04-15T07:57:44;6.43;;;5.47;;
568;SDS011;269;48.884;9.192;2023-04-15T08:00:11;6.03;;;5.43;;
568;SDS011;269;48.884;9.192;2023-04-15T08:02:42;5.50;;;5.00;;
568;SDS011;269;48.884;9.192;2023-04-15T08:05:11;7.47;;;5.30;;
568;SDS011;269;48.884;9.192;2023-04-15T08:07:39;5.63;;;5.13;;
568;SDS011;269;48.884;9.192;2023-04-15T08:10:07;6.47;;;5.47;;
568;SDS011;269;48.884;9.192;2023-04-15T08:12:35;7.77;;;5.27;;
568;SDS011;269;48.884;9.192;2023-04-15T08:15:02;5.67;;;4.73;;
568;SDS011;269;48.884;9.192;2023-04-15T08:17:29;5.63;;;4.90;;
568;SDS011;269;48.884;9.192;2023-04-15T08:19:58;6.80;;;5.17;;
568;SDS011;269;48.884;9.192;2023-04-15T08:22:25;5.40;;;4.83;;
568;SDS011;269;48.884;9.192;2023-04-15T08:24:52;5.23;;;4.50;;
568;SDS011;269;48.884;9.192;2023-04-15T08:27:19;4.70;;;4.30;;
568;SDS011;269;48.884;9.192;2023-04-15T08:29:46;6.27;;;5.37;;
568;SDS011;269;48.884;9.192;2023-04-15T08:32:13;5.43;;;3.97;;
568;SDS011;269;48.884;9.192;2023-04-15T08:34:41;5.10;;;4.30;;
568;SDS011;269;48.884;9.192;2023-04-15T08:37:09;4.13;;;3.73;;
568;SDS011;269;48.884;9.192;2023-04-15T08:39:36;3.60;;;3.30;;
568;SDS011;269;48.884;9.192;2023-04-15T08:42:03;4.20;;;3.57;;
568;SDS011;269;48.884;9.192;2023-04-15T08:44:37;5.53;;;3.70;;
568;SDS011;269;48.884;9.192;2023-04-15T08:47:06;4.73;;;3.50;;
568;SDS011;269;48.884;9.192;2023-04-15T08:49:34;4.07;;;3.33;;
568;SDS011;269;48.884;9.192;2023-04-15T08:52:05;5.90;;;3.70;;
568;SDS011;269;48.884;9.192;2023-04-15T08:54:35;3.50;;;3.20;;
568;SDS011;269;48.884;9.192;2023-04-15T08:57:03;3.23;;;3.03;;
568;SDS011;269;48.884;9.192;2023-04-15T08:59:30;3.50;;;3.10;;
568;SDS011;269;48.884;9.192;2023-04-15T09:01:57;4.30;;;3.80;;
568;SDS011;269;48.884;9.192;2023-04-15T09:04:25;3.67;;;3.30;;
568;SDS011;269;48.884;9.192;2023-04-15T09:06:53;3.90;;;3.60;;
568;SDS011;269;48.884;9.192;2023-04-15T09:09:21;3.20;;;2.83;;
568;SDS011;269;48.884;9.192;2023-04-15T09:11:49;4.83;;;3.67;;
568;SDS011;269;48.884;9.192;2023-04-15T09:14:17;4.10;;;3.67;;
568;SDS011;269;48.884;9.192;2023-04-15T09:16:57;4.40;;;3.83;;
568;SDS011;269;48.884;9.192;2023-04-15T09:19:25;4.03;;;3.73;;
568;SDS011;269;48.884;9.192;2023-04-15T09:21:52;4.23;;;3.83;;
568;SDS011;269;48.884;9.192;2023-04-15T09:24:21;3.90;;;3.27;;
568;SDS011;269;48.884;9.192;2023-04-15T09:26:52;3.80;;;3.40;;
568;SDS011;269;48.884;9.192;2023-04-15T09:29:20;4.90;;;4.07;;
568;SDS011;269;48.884;9.192;2023-04-15T09:31:51;4.13;;;3.73;;
568;SDS011;269;48.884;9.192;2023-04-15T09:34:18;3.97;;;3.67;;
568;SDS011;269;48.884;9.192;2023-04-15T09:36:52;4.33;;;3.90;;
568;SDS011;269;48.884;9.192;2023-04-15T09:39:20;4.00;;;3.10;;
568;SDS011;269;48.884;9.192;2023-04-15T09:41:54;5.00;;;3.70;;
568;SDS011;269;48.884;9.192;2023-04-15T09:44:30;3.77;;;3.47;;
568;SDS011;269;48.884;9.192;2023-04-15T09:46:57;4.80;;;4.30;;
568;SDS011;269;48.884;9.192;2023-04-15T09:49:24;4.33;;;3.43;;
568;SDS011;269;48.884;9.192;2023-04-15T09:51:56;5.10;;;3.53;;
568;SDS011;269;48.884;9.192;2023-04-15T09:54:24;4.80;;;3.97;;
568;SDS011;269;48.884;9.192;2023-04-15T09:56:50;4.23;;;3.60;;
568;SDS011;269;48.884;9.192;2023-04-15T09:59:19;4.00;;;3.60;;
568;SDS011;269;48.884;9.192;2023-04-15T10:01:46;3.43;;;3.13;;
568;SDS011;269;48.884;9.192;2023-04-15T10:04:13;4.13;;;3.23;;
568;SDS011;269;48.884;9.192;2023-04-15T10:06:41;3.90;;;3.50;;
568;SDS011;269;48.884;9.192;2023-04-15T10:09:08;4.13;;;3.70;;
568;SDS011;269;48.884;9.192;2023-04-15T10:11:35;5.47;;;3.53;;
568;SDS011;269;48.884;9.192;2023-04-15T10:14:03;4.00;;;2.80;;
568;SDS011;269;48.884;9.192;2023-04-15T10:16:33;3.37;;;3.07;;
568;SDS011;269;48.884;9.192;2023-04-15T10:19:03;4.77;;;2.80;;
568;SDS011;269;48.884;9.192;2023-04-15T10:21:32;3.40;;;3.07;;
568;SDS011;269;48.884;9.192;2023-04-15T10:23:59;5.60;;;2.87;;
568;SDS011;269;48.884;9.192;2023-04-15T10:26:28;3.00;;;2.70;;
568;SDS011;269;48.884;9.192;2023-04-15T10:28:56;2.93;;;2.60;;
568;SDS011;269;48.884;9.192;2023-04-15T10:31:24;4.03;;;3.00;;
568;SDS011;269;48.884;9.192;2023-04-15T10:33:53;4.20;;;2.80;;
568;SDS011;269;48.884;9.192;2023-04-15T10:36:20;3.00;;;2.80;;
568;SDS011;269;48.884;9.192;2023-04-15T10:38:47;3.47;;;2.80;;
568;SDS011;269;48.884;9.192;2023-04-15T10:41:15;2.93;;;2.73;;
568;SDS011;269;48.884;9.192;2023-04-15T10:43:48;3.17;;;2.50;;
568;SDS011;269;48.884;9.192;2023-04-15T10:46:17;3.73;;;3.10;;
568;SDS011;269;48.884;9.192;2023-04-15T10:48:46;4.53;;;2.73;;
568;SDS011;269;48.884;9.192;2023-04-15T10:51:15;3.83;;;2.90;;
568;SDS011;269;48.884;9.192;2023-04-15T10:53:54;3.17;;;2.60;;
568;SDS011;269;48.884;9.192;2023-04-15T10:56:22;3.43;;;2.43;;
568;SDS011;269;48.884;9.192;2023-04-15T10:58:49;4.30;;;3.10;;
568;SDS011;269;48.884;9.192;2023-04-15T11:01:18;3.80;;;3.00;;
568;SDS011;269;48.884;9.192;2023-04-15T11:03:45;3.73;;;3.40;;
568;SDS011;269;48.884;9.192;2023-04-15T11:06:13;3.77;;;3.20;;
568;SDS011;269;48.884;9.192;2023-04-15T11:08:52;3.90;;;3.60;;
568;SDS011;269;48.884;9.192;2023-04-15T11:11:20;4.90;;;4.50;;
568;SDS011;269;48.884;9.192;2023-04-15T11:13:48;4.60;;;3.80;;
568;SDS011;269;48.884;9.192;2023-04-15T11:16:16;4.20;;;3.90;;
568;SDS011;269;48.884;9.192;2023-04-15T11:18:52;4.43;;;3.70;;
568;SDS011;269;48.884;9.192;2023-04-15T11:21:21;5.93;;;4.47;;
568;SDS011;269;48.884;9.192;2023-04-15T11:23:51;4.43;;;3.77;;
568;SDS011;269;48.884;9.192;2023-04-15T11:26:18;4.30;;;3.90;;
568;SDS011;269;48.884;9.192;2023-04-15T11:28:45;4.67;;;4.13;;
568;SDS011;269;48.884;9.192;2023-04-15T11:31:13;4.50;;;4.10;;
568;SDS011;269;48.884;9.192;2023-04-15T11:33:45;5.20;;;4.30;;
568;SDS011;269;48.884;9.192;2023-04-15T11:36:18;4.40;;;3.80;;
568;SDS011;269;48.884;9.192;2023-04-15T11:38:47;4.20;;;3.80;;
568;SDS011;269;48.884;9.192;2023-04-15T11:41:14;4.27;;;3.67;;
568;SDS011;269;48.884;9.192;2023-04-15T11:43:45;3.90;;;3.60;;
568;SDS011;269;48.884;9.192;2023-04-15T11:46:12;5.30;;;3.97;;
568;SDS011;269;48.884;9.192;2023-04-15T11:48:41;3.70;;;3.13;;
568;SDS011;269;48.884;9.192;2023-04-15T11:51:10;3.60;;;2.73;;
568;SDS011;269;48.884;9.192;2023-04-15T11:53:38;3.17;;;2.70;;
568;SDS011;269;48.884;9.192;2023-04-15T11:56:09;2.83;;;2.30;;
568;SDS011;269;48.884;9.192;2023-04-15T11:58:37;3.87;;;3.00;;
568;SDS011;269;48.884;9.192;2023-04-15T12:01:05;5.87;;;3.10;;
568;SDS011;269;48.884;9.192;2023-04-15T12:03:36;3.20;;;2.90;;
568;SDS011;269;48.884;9.192;2023-04-15T12:06:08;3.10;;;2.63;;
568;SDS011;269;48.884;9.192;2023-04-15T12:08:55;4.70;;;3.40;;
568;SDS011;269;48.884;9.192;2023-04-15T12:11:32;4.10;;;2.83;;
568;SDS011;269;48.884;9.192;2023-04-15T12:14:19;3.40;;;3.10;;
568;SDS011;269;48.884;9.192;2023-04-15T12:16:48;3.70;;;3.40;;
568;SDS011;269;48.884;9.192;2023-04-15T12:19:21;4.10;;;3.80;;
568;SDS011;269;48.884;9.192;2023-04-15T12:21:50;4.80;;;3.80;;
568;SDS011;269;48.884;9.192;2023-04-15T12:24:19;4.43;;;4.00;;
568;SDS011;269;48.884;9.192;2023-04-15T12:26:50;4.30;;;3.90;;
568;SDS011;269;48.884;9.192;2023-04-15T12:29:18;4.70;;;4.20;;
568;SDS011;269;48.884;9.192;2023-04-15T12:31:49;4.90;;;3.80;;
568;SDS011;269;48.884;9.192;2023-04-15T12:34:18;4.18;;;3.33;;
568;SDS011;269;48.884;9.192;2023-04-15T12:36:53;3.85;;;3.20;;
568;SDS011;269;48.884;9.192;2023-04-15T12:39:22;2.30;;;2.10;;
568;SDS011;269;48.884;9.192;2023-04-15T12:41:51;2.30;;;2.10;;
568;SDS011;269;48.884;9.192;2023-04-15T12:44:18;2.40;;;2.20;;
568;SDS011;269;48.884;9.192;2023-04-15T12:46:48;2.43;;;2.20;;
568;SDS011;269;48.884;9.192;2023-04-15T12:49:15;2.13;;;1.93;;
568;SDS011;269;48.884;9.192;2023-04-15T12:51:44;2.77;;;2.30;;
568;SDS011;269;48.884;9.192;2023-04-15T12:54:12;3.50;;;2.47;;
568;SDS011;269;48.884;9.192;2023-04-15T12:56:39;3.00;;;2.50;;
568;SDS011;269;48.884;9.192;2023-04-15T12:59:08;2.80;;;2.60;;
568;SDS011;269;48.884;9.192;2023-04-15T13:01:35;3.07;;;2.77;;
568;SDS011;269;48.884;9.192;2023-04-15T13:04:02;4.10;;;2.63;;
568;SDS011;269;48.884;9.192;2023-04-15T13:06:30;2.80;;;2.40;;
568;SDS011;269;48.884;9.192;2023-04-15T13:08:57;3.10;;;2.90;;
568;SDS011;269;48.884;9.192;2023-04-15T13:11:25;3.80;;;2.40;;
568;SDS011;269;48.884;9.192;2023-04-15T13:13:55;4.17;;;2.97;;
568;SDS011;269;48.884;9.192;2023-04-15T13:16:24;3.47;;;2.93;;
568;SDS011;269;48.884;9.192;2023-04-15T13:18:51;4.03;;;3.00;;
568;SDS011;269;48.884;9.192;2023-04-15T13:21:18;2.27;;;1.80;;
568;SDS011;269;48.884;9.192;2023-04-15T13:23:45;1.70;;;1.40;;
568;SDS011;269;48.884;9.192;2023-04-15T13:26:14;1.23;;;1.10;;
568;SDS011;269;48.884;9.192;2023-04-15T13:28:41;1.60;;;1.10;;
568;SDS011;269;48.884;9.192;2023-04-15T13:31:08;1.20;;;1.10;;
568;SDS011;269;48.884;9.192;2023-04-15T13:33:36;1.63;;;1.40;;
568;SDS011;269;48.884;9.192;2023-04-15T13:36:04;2.33;;;1.20;;
568;SDS011;269;48.884;9.192;2023-04-15T13:38:31;1.97;;;1.23;;
568;SDS011;269;48.884;9.192;2023-04-15T13:40:58;2.83;;;2.13;;
568;SDS011;269;48.884;9.192;2023-04-15T13:43:25;2.70;;;1.70;;
568;SDS011;269;48.884;9.192;2023-04-15T13:45:52;4.27;;;2.33;;
568;SDS011;269;48.884;9.192;2023-04-15T13:48:19;2.53;;;1.70;;
568;SDS011;269;48.884;9.192;2023-04-15T13:50:47;2.13;;;1.90;;
568;SDS011;269;48.884;9.192;2023-04-15T13:53:15;1.80;;;1.60;;
568;SDS011;269;48.884;9.192;2023-04-15T13:55:42;2.73;;;1.60;;
568;SDS011;269;48.884;9.192;2023-04-15T13:58:09;1.50;;;1.23;;
568;SDS011;269;48.884;9.192;2023-04-15T14:00:37;1.77;;;1.30;;
568;SDS011;269;48.884;9.192;2023-04-15T14:03:04;1.80;;;1.30;;
568;SDS011;269;48.884;9.192;2023-04-15T14:05:31;1.43;;;1.33;;
568;SDS011;269;48.884;9.192;2023-04-15T14:07:59;1.90;;;1.50;;
568;SDS011;269;48.884;9.192;2023-04-15T14:10:26;1.63;;;1.53;;
568;SDS011;269;48.884;9.192;2023-04-15T14:12:53;2.17;;;1.50;;
568;SDS011;269;48.884;9.192;2023-04-15T14:15:21;3.03;;;1.40;;
568;SDS011;269;48.884;9.192;2023-04-15T14:17:48;3.07;;;1.63;;
568;SDS011;269;48.884;9.192;2023-04-15T14:20:15;2.67;;;1.50;;
568;SDS011;269;48.884;9.192;2023-04-15T14:22:42;1.73;;;1.43;;
568;SDS011;269;48.884;9.192;2023-04-15T14:25:10;1.90;;;1.30;;
568;SDS011;269;48.884;9.192;2023-04-15T14:27:37;2.10;;;1.80;;
568;SDS011;269;48.884;9.192;2023-04-15T14:30:05;2.57;;;1.73;;
568;SDS011;269;48.884;9.192;2023-04-15T14:32:33;1.90;;;1.33;;
568;SDS011;269;48.884;9.192;2023-04-15T14:35:00;1.90;;;1.50;;
568;SDS011;269;48.884;9.192;2023-04-15T14:37:28;1.80;;;1.50;;
568;SDS011;269;48.884;9.192;2023-04-15T14:39:55;1.47;;;1.30;;
568;SDS011;269;48.884;9.192;2023-04-15T14:42:24;1.90;;;1.43;;
568;SDS011;269;48.884;9.192;2023-04-15T14:44:51;2.00;;;1.43;;
568;SDS011;269;48.884;9.192;2023-04-15T14:47:18;1.87;;;1.77;;
568;SDS011;269;48.884;9.192;2023-04-15T14:49:45;1.50;;;1.40;;
568;SDS011;269;48.884;9.192;2023-04-15T14:52:12;4.13;;;1.87;;
568;SDS011;269;48.884;9.192;2023-04-15T14:54:39;1.60;;;1.50;;
568;SDS011;269;48.884;9.192;2023-04-15T14:57:06;2.42;;;1.30;;
568;SDS011;269;48.884;9.192;2023-04-15T14:59:35;2.97;;;1.90;;
568;SDS011;269;48.884;9.192;2023-04-15T15:02:01;2.40;;;2.20;;
568;SDS011;269;48.884;9.192;2023-04-15T15:04:29;2.28;;;1.60;;
568;SDS011;269;48.884;9.192;2023-04-15T15:06:57;1.87;;;1.60;;
568;SDS011;269;48.884;9.192;2023-04-15T15:09:25;1.83;;;1.40;;
568;SDS011;269;48.884;9.192;2023-04-15T15:11:52;2.15;;;1.95;;
568;SDS011;269;48.884;9.192;2023-04-15T15:14:21;1.50;;;1.40;;
568;SDS011;269;48.884;9.192;2023-04-15T15:16:49;2.05;;;1.65;;
568;SDS011;269;48.884;9.192;2023-04-15T15:19:16;2.97;;;1.40;;
568;SDS011;269;48.884;9.192;2023-04-15T15:21:43;2.00;;;1.88;;
568;SDS011;269;48.884;9.192;2023-04-15T15:24:11;1.60;;;1.48;;
568;SDS011;269;48.884;9.192;2023-04-15T15:26:38;1.73;;;1.45;;
568;SDS011;269;48.884;9.192;2023-04-15T15:29:05;2.60;;;1.70;;
568;SDS011;269;48.884;9.192;2023-04-15T15:31:32;1.85;;;1.67;;
568;SDS011;269;48.884;9.192;2023-04-15T15:34:01;1.90;;;1.50;;
568;SDS011;269;48.884;9.192;2023-04-15T15:36:28;2.78;;;1.73;;
568;SDS011;269;48.884;9.192;2023-04-15T15:38:56;1.90;;;1.80;;
568;SDS011;269;48.884;9.192;2023-04-15T15:41:23;2.00;;;1.90;;
568;SDS011;269;48.884;9.192;2023-04-15T15:43:51;2.35;;;1.85;;
568;SDS011;269;48.884;9.192;2023-04-15T15:46:18;2.17;;;1.90;;
568;SDS011;269;48.884;9.192;2023-04-15T15:48:45;3.35;;;1.88;;